Time;durP1;ratioP1;P1;durP2;ratioP2;P2;SDS_P1;SDS_P2;PMS_P1;PMS_P2;Temp;Humidity;BMP_temperature;BMP_pressure;BME280_temperature;BME280_humidity;BME280_pressure;Samples;Min_cycle;Max_cycle;Signal;HPM_P1;HPM_P2
2022/08/21 00:00:27;;;;;;;;;6.67;5.00;;;;;;;;5116252;27;45958;-64
2022/08/21 00:02:56;;;;;;;;;4.00;4.00;;;;;;;;5114615;27;45262;-64
2022/08/21 00:05:23;;;;;;;;;8.33;6.67;;;;;;;;5121093;27;45337;-65
2022/08/21 00:07:48;;;;;;;;;8.67;7.00;;;;;;;;5113588;27;45300;-64
2022/08/21 00:10:14;;;;;;;;;8.00;6.00;;;;;;;;5123024;27;45098;-64
2022/08/21 00:12:39;;;;;;;;;5.00;5.00;;;;;;;;5116575;27;45533;-64
2022/08/21 00:15:06;;;;;;;;;6.33;5.00;;;;;;;;5115155;27;45527;-65
2022/08/21 00:17:31;;;;;;;;;6.67;4.33;;;;;;;;5112447;27;45431;-64
2022/08/21 00:19:56;;;;;;;;;7.33;5.33;;;;;;;;5113951;27;46449;-64
2022/08/21 00:22:21;;;;;;;;;6.67;5.33;;;;;;;;5113989;27;45125;-64
2022/08/21 00:24:46;;;;;;;;;7.33;4.67;;;;;;;;5115398;27;45546;-64
2022/08/21 00:27:12;;;;;;;;;6.67;5.67;;;;;;;;5116626;27;45552;-64
2022/08/21 00:29:37;;;;;;;;;6.67;5.00;;;;;;;;5119150;27;45626;-64
2022/08/21 00:32:02;;;;;;;;;5.33;4.33;;;;;;;;5117494;27;45221;-64
2022/08/21 00:34:27;;;;;;;;;9.67;7.00;;;;;;;;5120645;27;45438;-64
2022/08/21 00:36:52;;;;;;;;;7.00;6.00;;;;;;;;5118745;27;45552;-65
2022/08/21 00:39:18;;;;;;;;;9.33;6.67;;;;;;;;5121377;27;45516;-64
2022/08/21 00:41:43;;;;;;;;;5.67;4.00;;;;;;;;5112598;27;45413;-64
2022/08/21 00:44:11;;;;;;;;;6.33;6.33;;;;;;;;5114191;27;45477;-64
2022/08/21 00:46:36;;;;;;;;;7.33;5.00;;;;;;;;5111516;27;45383;-64
2022/08/21 00:49:02;;;;;;;;;7.00;4.33;;;;;;;;5117536;27;45381;-63
2022/08/21 00:51:32;;;;;;;;;5.00;5.00;;;;;;;;5115557;27;45333;-63
2022/08/21 00:53:59;;;;;;;;;7.00;5.33;;;;;;;;5124477;27;45340;-63
2022/08/21 00:56:25;;;;;;;;;6.33;5.00;;;;;;;;5117415;27;45447;-65
2022/08/21 00:58:51;;;;;;;;;5.67;4.00;;;;;;;;5114352;27;45381;-64
2022/08/21 01:01:17;;;;;;;;;5.67;5.67;;;;;;;;5115883;27;45730;-65
2022/08/21 01:03:42;;;;;;;;;10.33;5.00;;;;;;;;5117511;27;45442;-63
2022/08/21 01:06:08;;;;;;;;;8.67;5.67;;;;;;;;5112386;27;45498;-64
2022/08/21 01:08:34;;;;;;;;;7.33;6.33;;;;;;;;5116956;27;45299;-65
2022/08/21 01:11:00;;;;;;;;;5.00;5.00;;;;;;;;5113684;27;45524;-65
2022/08/21 01:13:27;;;;;;;;;6.67;6.33;;;;;;;;5116204;27;45247;-65
2022/08/21 01:15:53;;;;;;;;;6.00;6.00;;;;;;;;5113478;27;45569;-65
2022/08/21 01:18:20;;;;;;;;;4.00;1.00;;;;;;;;5116316;27;47190;-65
2022/08/21 01:21:05;;;;;;;;;8.67;5.67;;;;;;;;5119760;27;45337;-65
2022/08/21 01:23:31;;;;;;;;;7.33;6.33;;;;;;;;5120705;27;46459;-65
2022/08/21 01:25:57;;;;;;;;;6.00;6.00;;;;;;;;5124835;27;45299;-65
2022/08/21 01:28:22;;;;;;;;;6.00;4.67;;;;;;;;5122208;27;45492;-65
2022/08/21 01:30:48;;;;;;;;;2.67;2.67;;;;;;;;5125571;27;45593;-65
2022/08/21 01:33:13;;;;;;;;;8.00;6.00;;;;;;;;5112909;27;45243;-65
2022/08/21 01:35:39;;;;;;;;;7.67;6.33;;;;;;;;5111398;27;45326;-65
2022/08/21 01:38:04;;;;;;;;;6.67;6.00;;;;;;;;5112961;27;45412;-65
2022/08/21 01:40:29;;;;;;;;;7.00;5.67;;;;;;;;5115008;27;45405;-65
2022/08/21 01:42:54;;;;;;;;;9.00;9.00;;;;;;;;5113777;27;45295;-65
2022/08/21 01:45:20;;;;;;;;;10.00;8.33;;;;;;;;5118954;27;45223;-64
2022/08/21 01:47:45;;;;;;;;;10.67;7.67;;;;;;;;5123113;27;46525;-65
2022/08/21 01:50:11;;;;;;;;;8.33;8.33;;;;;;;;5119808;27;45327;-65
2022/08/21 01:52:37;;;;;;;;;8.67;7.33;;;;;;;;5116441;27;45386;-65
2022/08/21 01:55:04;;;;;;;;;9.33;7.00;;;;;;;;5121193;27;45250;-65
2022/08/21 01:57:29;;;;;;;;;10.00;8.33;;;;;;;;5118133;27;47688;-65
2022/08/21 01:59:54;;;;;;;;;6.33;6.33;;;;;;;;5123726;27;45407;-65
2022/08/21 02:02:20;;;;;;;;;7.33;6.33;;;;;;;;5121316;27;45337;-64
2022/08/21 02:04:45;;;;;;;;;7.00;7.00;;;;;;;;5121631;27;45580;-65
2022/08/21 02:07:10;;;;;;;;;7.33;6.00;;;;;;;;5112253;27;45426;-65
2022/08/21 02:09:36;;;;;;;;;5.00;5.00;;;;;;;;5122816;27;45371;-65
2022/08/21 02:12:01;;;;;;;;;9.33;6.33;;;;;;;;5112061;27;45438;-65
2022/08/21 02:14:26;;;;;;;;;9.00;6.00;;;;;;;;5123127;27;45373;-65
2022/08/21 02:16:51;;;;;;;;;7.00;6.67;;;;;;;;5109569;27;45935;-66
2022/08/21 02:19:17;;;;;;;;;5.33;5.33;;;;;;;;5123875;27;45195;-65
2022/08/21 02:21:42;;;;;;;;;7.33;5.33;;;;;;;;5117207;27;45376;-65
2022/08/21 02:24:08;;;;;;;;;7.33;7.00;;;;;;;;5119428;27;45324;-65
2022/08/21 02:26:34;;;;;;;;;8.33;8.33;;;;;;;;5117137;27;45287;-65
2022/08/21 02:28:59;;;;;;;;;6.00;6.00;;;;;;;;5120276;27;45319;-65
2022/08/21 02:31:24;;;;;;;;;5.00;3.00;;;;;;;;5120231;27;45421;-65
2022/08/21 02:33:50;;;;;;;;;11.00;9.00;;;;;;;;5119908;27;45635;-65
2022/08/21 02:36:15;;;;;;;;;10.67;6.33;;;;;;;;5123680;27;45465;-65
2022/08/21 02:38:41;;;;;;;;;11.00;8.33;;;;;;;;5124294;27;45376;-65
2022/08/21 02:41:08;;;;;;;;;8.00;8.00;;;;;;;;5127113;27;45141;-65
2022/08/21 02:43:33;;;;;;;;;10.00;7.67;;;;;;;;5120059;27;45453;-65
2022/08/21 02:45:59;;;;;;;;;9.33;9.33;;;;;;;;5108357;27;45299;-65
2022/08/21 02:48:25;;;;;;;;;9.00;9.00;;;;;;;;5123750;27;45421;-64
2022/08/21 02:50:55;;;;;;;;;12.67;11.00;;;;;;;;5110559;27;45363;-65
2022/08/21 02:53:21;;;;;;;;;8.00;8.00;;;;;;;;5115466;27;45524;-65
2022/08/21 02:55:47;;;;;;;;;13.00;9.33;;;;;;;;5113809;27;46354;-65
2022/08/21 02:58:14;;;;;;;;;8.00;8.00;;;;;;;;5117113;27;45584;-65
2022/08/21 03:00:39;;;;;;;;;7.67;7.67;;;;;;;;5121373;27;45477;-65
2022/08/21 03:03:05;;;;;;;;;11.67;6.67;;;;;;;;5120094;27;45417;-65
2022/08/21 03:05:31;;;;;;;;;8.00;7.00;;;;;;;;5115496;27;45313;-65
2022/08/21 03:07:58;;;;;;;;;7.00;7.00;;;;;;;;5115066;27;45308;-65
2022/08/21 03:10:24;;;;;;;;;7.50;7.50;;;;;;;;5117588;27;45343;-65
2022/08/21 03:12:50;;;;;;;;;8.00;7.00;;;;;;;;5115033;27;45559;-65
2022/08/21 03:15:17;;;;;;;;;5.67;4.67;;;;;;;;5118247;27;45943;-64
2022/08/21 03:17:43;;;;;;;;;11.33;10.33;;;;;;;;5117879;27;45402;-64
2022/08/21 03:20:08;;;;;;;;;11.67;8.67;;;;;;;;5120381;27;45397;-65
2022/08/21 03:22:34;;;;;;;;;11.00;8.67;;;;;;;;5119722;27;45538;-65
2022/08/21 03:24:59;;;;;;;;;9.33;9.33;;;;;;;;5117057;27;46034;-65
2022/08/21 03:27:26;;;;;;;;;13.00;11.33;;;;;;;;5116551;27;45260;-65
2022/08/21 03:29:52;;;;;;;;;13.00;10.67;;;;;;;;5120567;27;45242;-65
2022/08/21 03:32:17;;;;;;;;;12.00;10.67;;;;;;;;5118168;27;45262;-65
2022/08/21 03:34:42;;;;;;;;;12.00;10.33;;;;;;;;5121888;27;45652;-65
2022/08/21 03:37:08;;;;;;;;;10.33;10.33;;;;;;;;5119537;27;45462;-64
2022/08/21 03:39:34;;;;;;;;;10.33;7.67;;;;;;;;5112151;27;45309;-65
2022/08/21 03:42:00;;;;;;;;;9.00;9.00;;;;;;;;5110386;27;45413;-65
2022/08/21 03:44:27;;;;;;;;;10.67;10.67;;;;;;;;5114422;27;45242;-65
2022/08/21 03:46:53;;;;;;;;;9.67;9.00;;;;;;;;5113304;27;45337;-65
2022/08/21 03:49:18;;;;;;;;;11.67;10.00;;;;;;;;5117412;27;45493;-65
2022/08/21 03:51:43;;;;;;;;;10.67;10.00;;;;;;;;5115202;27;45536;-65
2022/08/21 03:54:08;;;;;;;;;9.33;9.33;;;;;;;;5111324;27;46600;-65
2022/08/21 03:56:33;;;;;;;;;9.67;9.67;;;;;;;;5115489;27;45221;-65
2022/08/21 03:58:58;;;;;;;;;10.33;10.00;;;;;;;;5114865;27;45625;-65
2022/08/21 04:01:24;;;;;;;;;11.33;9.67;;;;;;;;5122088;27;45443;-65
2022/08/21 04:03:49;;;;;;;;;16.33;11.33;;;;;;;;5120898;27;45549;-65
2022/08/21 04:06:14;;;;;;;;;9.67;9.67;;;;;;;;5109909;27;45475;-65
2022/08/21 04:08:42;;;;;;;;;11.33;8.67;;;;;;;;5121122;27;45380;-66
2022/08/21 04:11:10;;;;;;;;;10.33;9.00;;;;;;;;5111725;27;45324;-66
2022/08/21 04:13:35;;;;;;;;;12.33;9.67;;;;;;;;5118652;27;45230;-65
2022/08/21 04:16:00;;;;;;;;;8.00;8.00;;;;;;;;5113643;27;45180;-65
2022/08/21 04:18:25;;;;;;;;;2.33;1.00;;;;;;;;5119497;27;45428;-65
2022/08/21 04:20:52;;;;;;;;;7.00;7.00;;;;;;;;5117218;27;45523;-65
2022/08/21 04:23:18;;;;;;;;;11.00;9.00;;;;;;;;5119066;27;45756;-65
2022/08/21 04:25:43;;;;;;;;;8.00;8.00;;;;;;;;5121474;27;45517;-65
2022/08/21 04:28:08;;;;;;;;;10.00;9.00;;;;;;;;5113233;27;45608;-65
2022/08/21 04:30:34;;;;;;;;;12.00;9.00;;;;;;;;5117112;27;45318;-65
2022/08/21 04:32:59;;;;;;;;;9.33;9.00;;;;;;;;5118311;27;45527;-65
2022/08/21 04:35:26;;;;;;;;;10.00;8.00;;;;;;;;5120317;27;45305;-64
2022/08/21 04:37:51;;;;;;;;;11.00;11.00;;;;;;;;5115619;27;45498;-65
2022/08/21 04:40:17;;;;;;;;;10.00;9.00;;;;;;;;5118928;27;45451;-64
2022/08/21 04:42:49;;;;;;;;;5.00;4.67;;;;;;;;5115636;27;45418;-65
2022/08/21 04:45:20;;;;;;;;;9.00;6.00;;;;;;;;5110229;27;45373;-65
2022/08/21 04:47:45;;;;;;;;;7.00;7.00;;;;;;;;5117789;27;45519;-64
2022/08/21 04:50:11;;;;;;;;;8.00;8.00;;;;;;;;5115528;27;45593;-65
2022/08/21 04:52:37;;;;;;;;;10.00;9.00;;;;;;;;5110472;27;46446;-65
2022/08/21 04:55:02;;;;;;;;;6.67;6.67;;;;;;;;5115499;27;45289;-66
2022/08/21 04:57:28;;;;;;;;;12.00;10.00;;;;;;;;5118736;27;45541;-65
2022/08/21 04:59:53;;;;;;;;;12.00;9.00;;;;;;;;5121449;27;45427;-65
2022/08/21 05:02:18;;;;;;;;;9.67;8.00;;;;;;;;5117737;27;46399;-64
2022/08/21 05:04:47;;;;;;;;;7.33;7.33;;;;;;;;5122486;27;45315;-65
2022/08/21 05:07:15;;;;;;;;;9.00;8.67;;;;;;;;5112250;27;45485;-65
2022/08/21 05:09:40;;;;;;;;;12.00;12.00;;;;;;;;5120619;27;45314;-65
2022/08/21 05:12:06;;;;;;;;;10.00;9.00;;;;;;;;5115431;27;46157;-65
2022/08/21 05:14:31;;;;;;;;;10.00;9.00;;;;;;;;5123199;27;45297;-65
2022/08/21 05:16:56;;;;;;;;;8.00;8.00;;;;;;;;5116258;27;45367;-64
2022/08/21 05:19:23;;;;;;;;;10.00;7.00;;;;;;;;5114987;27;45525;-64
2022/08/21 05:21:48;;;;;;;;;11.00;10.00;;;;;;;;5108493;27;45536;-65
2022/08/21 05:24:13;;;;;;;;;13.33;13.33;;;;;;;;5116423;27;45363;-65
2022/08/21 05:26:39;;;;;;;;;12.33;9.00;;;;;;;;5108419;27;45371;-65
2022/08/21 05:29:04;;;;;;;;;16.67;13.00;;;;;;;;5119769;27;45305;-65
2022/08/21 05:31:29;;;;;;;;;11.67;9.00;;;;;;;;5119392;27;46475;-64
2022/08/21 05:33:55;;;;;;;;;12.33;11.67;;;;;;;;5120978;27;45381;-65
2022/08/21 05:36:20;;;;;;;;;16.00;11.33;;;;;;;;5116434;27;45532;-65
2022/08/21 05:38:45;;;;;;;;;15.00;12.00;;;;;;;;5120313;27;45538;-64
2022/08/21 05:41:10;;;;;;;;;13.00;11.00;;;;;;;;5117724;27;45530;-65
2022/08/21 05:43:36;;;;;;;;;13.33;11.67;;;;;;;;5120114;27;45369;-64
2022/08/21 05:46:05;;;;;;;;;14.00;14.00;;;;;;;;5120289;27;45361;-65
2022/08/21 05:48:30;;;;;;;;;16.00;14.33;;;;;;;;5112584;27;45309;-65
2022/08/21 05:50:56;;;;;;;;;13.00;13.00;;;;;;;;5111490;27;46274;-65
2022/08/21 05:53:22;;;;;;;;;14.00;12.00;;;;;;;;5110209;27;45329;-64
2022/08/21 05:55:47;;;;;;;;;18.00;14.25;;;;;;;;5104941;27;45323;-65
2022/08/21 05:58:14;;;;;;;;;16.25;14.00;;;;;;;;5115200;27;45468;-65
2022/08/21 06:00:40;;;;;;;;;17.75;13.75;;;;;;;;5105955;27;45431;-64
2022/08/21 06:03:10;;;;;;;;;17.50;15.50;;;;;;;;5114681;27;45457;-65
2022/08/21 06:05:35;;;;;;;;;21.50;19.00;;;;;;;;5119205;27;45334;-65
2022/08/21 06:08:00;;;;;;;;;20.50;18.50;;;;;;;;5117842;27;45569;-64
2022/08/21 06:10:25;;;;;;;;;19.00;16.75;;;;;;;;5119022;27;45333;-65
2022/08/21 06:12:54;;;;;;;;;20.50;18.00;;;;;;;;5115541;27;45483;-65
2022/08/21 06:15:20;;;;;;;;;20.25;18.75;;;;;;;;5121334;27;45332;-64
2022/08/21 06:17:45;;;;;;;;;20.25;18.25;;;;;;;;5117499;27;45534;-66
2022/08/21 06:20:10;;;;;;;;;17.50;16.50;;;;;;;;5119751;27;45375;-64
2022/08/21 06:22:35;;;;;;;;;25.50;19.75;;;;;;;;5121331;27;45471;-64
2022/08/21 06:25:01;;;;;;;;;17.25;15.50;;;;;;;;5126817;27;45307;-66
2022/08/21 06:27:26;;;;;;;;;15.00;14.00;;;;;;;;5117458;27;45344;-64
2022/08/21 06:29:51;;;;;;;;;16.25;16.00;;;;;;;;5115850;27;45582;-64
2022/08/21 06:32:16;;;;;;;;;17.75;16.25;;;;;;;;5120978;27;45425;-64
2022/08/21 06:34:41;;;;;;;;;16.00;13.67;;;;;;;;5123557;27;45284;-64
2022/08/21 06:37:07;;;;;;;;;14.67;14.67;;;;;;;;5119516;27;45402;-64
2022/08/21 06:39:33;;;;;;;;;17.33;16.33;;;;;;;;5123592;27;46417;-64
2022/08/21 06:41:58;;;;;;;;;14.33;13.33;;;;;;;;5115303;27;45294;-67
2022/08/21 06:44:23;;;;;;;;;13.67;12.33;;;;;;;;5117350;27;45295;-64
2022/08/21 06:46:49;;;;;;;;;17.00;13.33;;;;;;;;5116374;27;45472;-64
2022/08/21 06:49:14;;;;;;;;;14.33;13.67;;;;;;;;5119285;27;46753;-64
2022/08/21 06:51:39;;;;;;;;;10.67;9.67;;;;;;;;5116249;27;45426;-64
2022/08/21 06:54:05;;;;;;;;;11.67;11.33;;;;;;;;5112533;27;45428;-65
2022/08/21 06:56:30;;;;;;;;;14.67;10.67;;;;;;;;5119947;27;45489;-64
2022/08/21 06:58:55;;;;;;;;;9.67;9.33;;;;;;;;5116033;27;45587;-64
2022/08/21 07:01:23;;;;;;;;;13.00;11.00;;;;;;;;5116608;27;45406;-64
2022/08/21 07:03:48;;;;;;;;;12.67;9.33;;;;;;;;5118100;27;45474;-64
2022/08/21 07:06:13;;;;;;;;;10.67;10.00;;;;;;;;5119564;27;45525;-65
2022/08/21 07:08:39;;;;;;;;;7.00;7.00;;;;;;;;5119628;27;45492;-64
2022/08/21 07:11:08;;;;;;;;;12.67;11.00;;;;;;;;5122411;27;45329;-64
2022/08/21 07:13:33;;;;;;;;;10.33;8.33;;;;;;;;5115220;27;45394;-63
2022/08/21 07:15:58;;;;;;;;;15.00;15.00;;;;;;;;5109685;27;45446;-64
2022/08/21 07:18:24;;;;;;;;;12.00;10.67;;;;;;;;5114959;27;45347;-65
2022/08/21 07:20:49;;;;;;;;;10.00;10.00;;;;;;;;5115682;27;45176;-65
2022/08/21 07:23:20;;;;;;;;;12.00;9.33;;;;;;;;5117514;27;45388;-65
2022/08/21 07:25:46;;;;;;;;;10.00;8.67;;;;;;;;5118200;27;45379;-64
2022/08/21 07:28:11;;;;;;;;;11.00;9.00;;;;;;;;5118911;27;45530;-64
2022/08/21 07:30:36;;;;;;;;;10.00;8.33;;;;;;;;5122291;27;45281;-64
2022/08/21 07:33:01;;;;;;;;;10.00;9.67;;;;;;;;5121440;27;45368;-64
2022/08/21 07:35:27;;;;;;;;;11.67;11.67;;;;;;;;5121019;27;45375;-64
2022/08/21 07:37:53;;;;;;;;;13.33;8.00;;;;;;;;5122462;27;45364;-64
2022/08/21 07:40:18;;;;;;;;;8.00;8.00;;;;;;;;5122488;27;45319;-64
2022/08/21 07:42:45;;;;;;;;;6.00;6.00;;;;;;;;5117673;27;45439;-64
2022/08/21 07:45:11;;;;;;;;;8.00;8.00;;;;;;;;5105948;27;45339;-63
2022/08/21 07:47:36;;;;;;;;;12.67;11.67;;;;;;;;5113862;27;46185;-63
2022/08/21 07:50:02;;;;;;;;;8.33;7.00;;;;;;;;5113031;27;45223;-63
2022/08/21 07:52:27;;;;;;;;;13.67;9.00;;;;;;;;5113603;27;47286;-63
2022/08/21 07:54:52;;;;;;;;;8.33;8.33;;;;;;;;5116167;27;45324;-63
2022/08/21 07:57:18;;;;;;;;;7.00;7.00;;;;;;;;5112446;27;45763;-64
2022/08/21 07:59:43;;;;;;;;;5.00;5.00;;;;;;;;5117576;27;45289;-64
2022/08/21 08:02:08;;;;;;;;;8.33;6.00;;;;;;;;5114563;27;45553;-64
2022/08/21 08:04:33;;;;;;;;;7.00;7.00;;;;;;;;5119752;27;45442;-64
2022/08/21 08:06:58;;;;;;;;;5.00;5.00;;;;;;;;5112788;27;45476;-64
2022/08/21 08:09:24;;;;;;;;;6.00;6.00;;;;;;;;5116714;27;45405;-64
2022/08/21 08:11:49;;;;;;;;;7.67;6.00;;;;;;;;5116331;27;46114;-64
2022/08/21 08:14:15;;;;;;;;;8.67;7.00;;;;;;;;5119282;27;45331;-64
2022/08/21 08:16:40;;;;;;;;;6.67;5.33;;;;;;;;5119366;27;46440;-64
2022/08/21 08:19:06;;;;;;;;;6.00;6.00;;;;;;;;5119977;27;45291;-64
2022/08/21 08:21:33;;;;;;;;;8.00;7.00;;;;;;;;5108211;27;45378;-65
2022/08/21 08:23:58;;;;;;;;;7.00;5.67;;;;;;;;5115194;27;45481;-64
2022/08/21 08:26:23;;;;;;;;;6.67;6.00;;;;;;;;5109570;27;45373;-64
2022/08/21 08:28:48;;;;;;;;;6.00;4.33;;;;;;;;5116786;27;45419;-64
2022/08/21 08:31:14;;;;;;;;;11.67;11.67;;;;;;;;5118338;27;45437;-64
2022/08/21 08:33:39;;;;;;;;;6.67;6.67;;;;;;;;5123248;27;45532;-64
2022/08/21 08:36:04;;;;;;;;;3.67;1.00;;;;;;;;5120759;27;45412;-65
2022/08/21 08:38:30;;;;;;;;;9.00;6.33;;;;;;;;5121353;27;45395;-64
2022/08/21 08:41:05;;;;;;;;;6.33;6.33;;;;;;;;5123289;27;45223;-64
2022/08/21 08:43:32;;;;;;;;;6.33;5.00;;;;;;;;5120067;27;45232;-64
2022/08/21 08:46:01;;;;;;;;;4.00;4.00;;;;;;;;5104980;27;45406;-64
2022/08/21 08:48:34;;;;;;;;;5.67;4.00;;;;;;;;5117768;27;45484;-64
2022/08/21 08:51:00;;;;;;;;;4.33;4.00;;;;;;;;5107272;27;45308;-64
2022/08/21 08:53:30;;;;;;;;;7.67;5.00;;;;;;;;5120031;27;45393;-64
2022/08/21 08:55:57;;;;;;;;;5.33;5.00;;;;;;;;5108166;27;46337;-64
2022/08/21 08:58:31;;;;;;;;;7.00;6.00;;;;;;;;5115935;27;45299;-64
2022/08/21 09:00:56;;;;;;;;;5.33;5.00;;;;;;;;5110330;27;45306;-64
2022/08/21 09:03:25;;;;;;;;;7.00;4.67;;;;;;;;5120865;27;45310;-64
2022/08/21 09:06:09;;;;;;;;;5.67;5.00;;;;;;;;5112904;27;45511;-64
2022/08/21 09:08:44;;;;;;;;;5.00;4.67;;;;;;;;5112736;27;45480;-64
2022/08/21 09:11:20;;;;;;;;;6.67;3.33;;;;;;;;5116150;27;45514;-66
2022/08/21 09:13:54;;;;;;;;;5.33;5.33;;;;;;;;5120176;27;45401;-65
2022/08/21 09:16:38;;;;;;;;;5.00;3.33;;;;;;;;5120572;27;46590;-65
2022/08/21 09:19:15;;;;;;;;;5.33;4.33;;;;;;;;5119105;27;45301;-65
2022/08/21 09:21:59;;;;;;;;;7.33;6.00;;;;;;;;5106860;27;45584;-65
2022/08/21 09:24:24;;;;;;;;;5.00;5.00;;;;;;;;5113153;27;45788;-64
2022/08/21 09:26:49;;;;;;;;;5.33;5.00;;;;;;;;5108897;27;45240;-64
2022/08/21 09:29:18;;;;;;;;;7.00;4.00;;;;;;;;5119810;27;45719;-64
2022/08/21 09:31:43;;;;;;;;;6.67;4.00;;;;;;;;5118409;27;45210;-65
2022/08/21 09:34:11;;;;;;;;;5.00;5.00;;;;;;;;5122546;27;45378;-64
2022/08/21 09:36:42;;;;;;;;;7.00;5.00;;;;;;;;5114518;27;47512;-64
2022/08/21 09:39:08;;;;;;;;;6.67;5.33;;;;;;;;5122026;27;45329;-66
2022/08/21 09:41:37;;;;;;;;;10.00;6.00;;;;;;;;5122470;27;45585;-64
2022/08/21 09:44:04;;;;;;;;;5.33;4.67;;;;;;;;5116486;27;45580;-64
2022/08/21 09:46:29;;;;;;;;;5.00;5.00;;;;;;;;5108860;27;46910;-65
2022/08/21 09:48:56;;;;;;;;;1.33;1.33;;;;;;;;5117636;27;45398;-65
2022/08/21 09:51:32;;;;;;;;;5.67;5.00;;;;;;;;5111583;27;45369;-65
2022/08/21 09:54:12;;;;;;;;;5.00;5.00;;;;;;;;5118375;27;45330;-65
2022/08/21 09:59:31;;;;;;;;;3.33;3.33;;;;;;;;5112827;27;45305;-65
2022/08/21 10:01:58;;;;;;;;;4.00;2.00;;;;;;;;5115764;27;45244;-65
2022/08/21 10:04:27;;;;;;;;;5.00;4.00;;;;;;;;5117360;27;45346;-64
2022/08/21 10:06:53;;;;;;;;;3.33;3.33;;;;;;;;5116206;27;45446;-65
2022/08/21 10:09:19;;;;;;;;;4.00;4.00;;;;;;;;5122697;27;45241;-64
2022/08/21 10:11:49;;;;;;;;;4.33;4.33;;;;;;;;5120124;27;45520;-65
2022/08/21 10:14:15;;;;;;;;;3.00;3.00;;;;;;;;5123310;27;45497;-65
2022/08/21 10:16:59;;;;;;;;;4.00;4.00;;;;;;;;5122845;27;45348;-65
2022/08/21 10:19:30;;;;;;;;;4.33;4.00;;;;;;;;5113156;27;45384;-65
2022/08/21 10:22:15;;;;;;;;;3.00;3.00;;;;;;;;5110272;27;45466;-65
2022/08/21 10:24:59;;;;;;;;;6.00;6.00;;;;;;;;5109115;27;45565;-65
2022/08/21 10:27:41;;;;;;;;;6.00;5.00;;;;;;;;5115818;27;45512;-65
2022/08/21 10:30:09;;;;;;;;;5.67;5.67;;;;;;;;5120959;27;45313;-65
2022/08/21 10:32:44;;;;;;;;;5.00;5.00;;;;;;;;5117496;27;45431;-65
2022/08/21 10:35:14;;;;;;;;;4.00;4.00;;;;;;;;5121226;27;45167;-65
2022/08/21 10:37:48;;;;;;;;;5.33;3.67;;;;;;;;5123105;27;46276;-65
2022/08/21 10:40:29;;;;;;;;;7.67;5.00;;;;;;;;5122386;27;45543;-65
2022/08/21 10:43:03;;;;;;;;;6.00;5.00;;;;;;;;5112137;27;45463;-65
2022/08/21 10:45:34;;;;;;;;;5.33;5.33;;;;;;;;5119761;27;45453;-65
2022/08/21 10:48:03;;;;;;;;;3.67;2.33;;;;;;;;5119953;27;46788;-64
2022/08/21 10:50:38;;;;;;;;;2.33;2.00;;;;;;;;5112930;27;45270;-64
2022/08/21 10:53:08;;;;;;;;;3.33;3.00;;;;;;;;5113064;27;45556;-65
2022/08/21 10:55:33;;;;;;;;;3.00;3.00;;;;;;;;5117261;27;45433;-65
2022/08/21 10:58:02;;;;;;;;;2.67;2.00;;;;;;;;5115280;27;45524;-65
2022/08/21 11:00:46;;;;;;;;;3.00;3.00;;;;;;;;5119563;27;45287;-65
2022/08/21 11:03:21;;;;;;;;;3.67;3.00;;;;;;;;5117848;27;45291;-65
2022/08/21 11:05:47;;;;;;;;;5.00;3.33;;;;;;;;5112029;27;45336;-65
2022/08/21 11:08:15;;;;;;;;;2.00;2.00;;;;;;;;5118506;27;45403;-65
2022/08/21 11:10:45;;;;;;;;;0.33;0.33;;;;;;;;5113680;27;45264;-65
2022/08/21 11:13:13;;;;;;;;;5.67;3.67;;;;;;;;5119274;27;45535;-65
2022/08/21 11:15:47;;;;;;;;;3.00;3.00;;;;;;;;5122298;27;45330;-65
2022/08/21 11:18:31;;;;;;;;;6.00;4.00;;;;;;;;5119065;27;45665;-65
2022/08/21 11:21:25;;;;;;;;;4.00;4.00;;;;;;;;5122641;27;45426;-65
2022/08/21 11:24:12;;;;;;;;;3.33;2.33;;;;;;;;5120583;27;45247;-65
2022/08/21 11:26:41;;;;;;;;;4.00;4.00;;;;;;;;5117359;27;45514;-65
2022/08/21 11:29:13;;;;;;;;;2.00;2.00;;;;;;;;5121880;27;48014;-63
2022/08/21 11:31:44;;;;;;;;;5.00;5.00;;;;;;;;5117469;27;45350;-65
2022/08/21 11:34:15;;;;;;;;;3.00;3.00;;;;;;;;5117935;27;45480;-65
2022/08/21 11:36:54;;;;;;;;;5.00;3.67;;;;;;;;5112932;27;45573;-65
2022/08/21 11:39:25;;;;;;;;;1.67;1.67;;;;;;;;5113830;27;45465;-65
2022/08/21 11:41:59;;;;;;;;;4.00;4.00;;;;;;;;5116002;27;45508;-65
2022/08/21 11:44:43;;;;;;;;;2.33;2.33;;;;;;;;5123946;27;45418;-63
2022/08/21 11:47:26;;;;;;;;;3.00;3.00;;;;;;;;5118733;27;45369;-65
2022/08/21 11:50:02;;;;;;;;;2.67;2.00;;;;;;;;5115613;27;46310;-65
2022/08/21 11:52:27;;;;;;;;;3.67;3.00;;;;;;;;5118938;27;45490;-65
2022/08/21 11:54:57;;;;;;;;;3.67;3.67;;;;;;;;5113841;27;45372;-65
2022/08/21 11:57:26;;;;;;;;;4.33;3.67;;;;;;;;5110881;27;45360;-65
2022/08/21 11:59:54;;;;;;;;;2.00;2.00;;;;;;;;5124532;27;45432;-65
2022/08/21 12:02:22;;;;;;;;;6.00;5.00;;;;;;;;5110578;27;45378;-65
2022/08/21 12:04:52;;;;;;;;;2.33;2.33;;;;;;;;5119431;27;45499;-65
2022/08/21 12:07:29;;;;;;;;;4.00;4.00;;;;;;;;5113464;27;46055;-65
2022/08/21 12:09:56;;;;;;;;;1.67;1.67;;;;;;;;5116731;27;45258;-63
2022/08/21 12:12:32;;;;;;;;;4.67;4.67;;;;;;;;5114672;27;45350;-63
2022/08/21 12:15:24;;;;;;;;;5.33;4.67;;;;;;;;5122743;27;45341;-65
2022/08/21 12:18:03;;;;;;;;;6.00;4.67;;;;;;;;5111569;27;45350;-65
2022/08/21 12:20:40;;;;;;;;;3.67;3.33;;;;;;;;5104990;27;45515;-65
2022/08/21 12:23:11;;;;;;;;;2.67;2.00;;;;;;;;5113586;27;45450;-65
2022/08/21 12:25:47;;;;;;;;;3.67;3.00;;;;;;;;5108515;27;45457;-65
2022/08/21 12:28:15;;;;;;;;;4.67;4.67;;;;;;;;5116137;27;45199;-65
2022/08/21 12:30:43;;;;;;;;;4.00;4.00;;;;;;;;5114198;27;45396;-65
2022/08/21 12:33:26;;;;;;;;;6.00;3.00;;;;;;;;5111843;27;45438;-65
2022/08/21 12:36:00;;;;;;;;;3.00;3.00;;;;;;;;5116574;27;45328;-64
2022/08/21 12:38:29;;;;;;;;;3.00;3.00;;;;;;;;5116595;27;45437;-65
2022/08/21 12:40:54;;;;;;;;;2.67;2.67;;;;;;;;5118538;27;45457;-65
2022/08/21 12:43:23;;;;;;;;;2.00;2.00;;;;;;;;5117319;27;46065;-65
2022/08/21 12:45:50;;;;;;;;;4.00;2.33;;;;;;;;5120610;27;45418;-65
2022/08/21 12:48:18;;;;;;;;;2.33;2.33;;;;;;;;5112193;27;45320;-65
2022/08/21 12:50:47;;;;;;;;;4.33;4.33;;;;;;;;5123292;27;46380;-63
2022/08/21 12:53:14;;;;;;;;;2.33;2.33;;;;;;;;5112677;27;45417;-65
2022/08/21 12:55:40;;;;;;;;;2.00;2.00;;;;;;;;5118215;27;45652;-64
2022/08/21 12:58:05;;;;;;;;;4.33;2.33;;;;;;;;5119574;27;45484;-65
2022/08/21 13:00:31;;;;;;;;;2.00;2.00;;;;;;;;5121091;27;46188;-65
2022/08/21 13:02:57;;;;;;;;;4.00;2.00;;;;;;;;5118395;27;45304;-65
2022/08/21 13:05:35;;;;;;;;;2.00;2.00;;;;;;;;5122765;27;45416;-65
2022/08/21 13:08:05;;;;;;;;;2.00;2.00;;;;;;;;5111932;27;45232;-65
2022/08/21 13:10:31;;;;;;;;;4.00;2.33;;;;;;;;5114875;27;45146;-65
2022/08/21 13:13:01;;;;;;;;;1.00;1.00;;;;;;;;5115192;27;45278;-65
2022/08/21 13:15:31;;;;;;;;;3.00;2.00;;;;;;;;5125402;27;45306;-65
2022/08/21 13:18:01;;;;;;;;;3.00;3.00;;;;;;;;5114572;27;45553;-65
2022/08/21 13:20:31;;;;;;;;;2.00;2.00;;;;;;;;5115733;27;45313;-65
2022/08/21 13:22:57;;;;;;;;;2.33;1.67;;;;;;;;5115989;27;45333;-65
2022/08/21 13:25:26;;;;;;;;;1.00;1.00;;;;;;;;5117556;27;45399;-65
2022/08/21 13:28:06;;;;;;;;;2.00;2.00;;;;;;;;5120840;27;45482;-65
2022/08/21 13:30:32;;;;;;;;;3.00;2.00;;;;;;;;5122457;27;46896;-65
2022/08/21 13:32:59;;;;;;;;;1.67;1.33;;;;;;;;5122352;27;45376;-65
2022/08/21 13:35:35;;;;;;;;;1.33;1.33;;;;;;;;5122225;27;45402;-65
2022/08/21 13:38:02;;;;;;;;;1.00;1.00;;;;;;;;5123546;27;45501;-65
2022/08/21 13:40:41;;;;;;;;;1.00;1.00;;;;;;;;5124326;27;45339;-65
2022/08/21 13:43:11;;;;;;;;;1.00;1.00;;;;;;;;5114446;27;45402;-65
2022/08/21 13:45:37;;;;;;;;;1.00;1.00;;;;;;;;5127320;27;45645;-65
2022/08/21 13:48:03;;;;;;;;;0.00;0.00;;;;;;;;5116671;27;45413;-65
2022/08/21 13:50:28;;;;;;;;;1.00;1.00;;;;;;;;5121015;27;45435;-65
2022/08/21 13:52:58;;;;;;;;;2.00;0.00;;;;;;;;5114795;27;45335;-65
2022/08/21 13:55:24;;;;;;;;;0.00;0.00;;;;;;;;5112529;27;45257;-65
2022/08/21 13:57:58;;;;;;;;;0.33;0.33;;;;;;;;5115851;27;45628;-63
2022/08/21 14:00:27;;;;;;;;;0.33;0.33;;;;;;;;5114301;27;45398;-65
2022/08/21 14:02:53;;;;;;;;;1.00;0.00;;;;;;;;5118892;27;45432;-65
2022/08/21 14:05:25;;;;;;;;;0.00;0.00;;;;;;;;5126141;27;45446;-65
2022/08/21 14:07:50;;;;;;;;;2.00;2.00;;;;;;;;5118259;27;45361;-63
2022/08/21 14:10:18;;;;;;;;;2.00;0.00;;;;;;;;5118748;27;45418;-63
2022/08/21 14:12:47;;;;;;;;;1.00;1.00;;;;;;;;5120388;27;45380;-63
2022/08/21 14:15:16;;;;;;;;;3.00;1.00;;;;;;;;5120545;27;45363;-65
2022/08/21 14:17:42;;;;;;;;;1.00;1.00;;;;;;;;5119086;27;45386;-65
2022/08/21 14:20:09;;;;;;;;;0.33;0.33;;;;;;;;5126247;27;45462;-65
2022/08/21 14:22:34;;;;;;;;;1.00;1.00;;;;;;;;5116534;27;45425;-63
2022/08/21 14:25:19;;;;;;;;;1.00;1.00;;;;;;;;5117810;27;45640;-65
2022/08/21 14:28:05;;;;;;;;;1.00;1.00;;;;;;;;5104643;27;45449;-65
2022/08/21 14:30:35;;;;;;;;;1.00;1.00;;;;;;;;5107512;27;46769;-67
2022/08/21 14:33:00;;;;;;;;;0.00;0.00;;;;;;;;5111105;27;45406;-65
2022/08/21 14:35:26;;;;;;;;;0.00;0.00;;;;;;;;5115300;27;45477;-63
2022/08/21 14:37:51;;;;;;;;;0.00;0.00;;;;;;;;5118250;27;45472;-65
2022/08/21 14:40:17;;;;;;;;;0.00;0.00;;;;;;;;5116211;27;45345;-65
2022/08/21 14:42:43;;;;;;;;;0.00;0.00;;;;;;;;5115747;27;45368;-65
2022/08/21 14:45:19;;;;;;;;;0.00;0.00;;;;;;;;5116984;27;45198;-65